sensor_id;sensor_type;location;lat;lon;timestamp;temperature;humidity
14006;DHT22;7078;51.542;7.314;2023-02-15T00:00:06;4.10;99.90
14006;DHT22;7078;51.542;7.314;2023-02-15T00:02:33;4.00;99.90
14006;DHT22;7078;51.542;7.314;2023-02-15T00:04:59;4.00;99.90
14006;DHT22;7078;51.542;7.314;2023-02-15T00:07:24;3.90;99.90
14006;DHT22;7078;51.542;7.314;2023-02-15T00:09:50;3.90;99.90
14006;DHT22;7078;51.542;7.314;2023-02-15T00:12:16;3.80;99.90
14006;DHT22;7078;51.542;7.314;2023-02-15T00:14:42;3.80;99.90
14006;DHT22;7078;51.542;7.314;2023-02-15T00:17:07;3.70;99.90
14006;DHT22;7078;51.542;7.314;2023-02-15T00:19:33;3.60;99.90
14006;DHT22;7078;51.542;7.314;2023-02-15T00:21:58;3.60;99.90
14006;DHT22;7078;51.542;7.314;2023-02-15T00:24:24;3.60;99.90
14006;DHT22;7078;51.542;7.314;2023-02-15T00:26:50;3.50;99.90
14006;DHT22;7078;51.542;7.314;2023-02-15T00:29:17;3.50;99.90
14006;DHT22;7078;51.542;7.314;2023-02-15T00:31:43;3.50;99.90
14006;DHT22;7078;51.542;7.314;2023-02-15T00:34:17;3.40;99.90
14006;DHT22;7078;51.542;7.314;2023-02-15T00:36:44;3.30;99.90
14006;DHT22;7078;51.542;7.314;2023-02-15T00:39:10;3.40;99.90
14006;DHT22;7078;51.542;7.314;2023-02-15T00:41:36;3.40;99.90
14006;DHT22;7078;51.542;7.314;2023-02-15T00:44:02;3.40;99.90
14006;DHT22;7078;51.542;7.314;2023-02-15T00:46:28;3.30;99.90
14006;DHT22;7078;51.542;7.314;2023-02-15T00:48:53;3.30;99.90
14006;DHT22;7078;51.542;7.314;2023-02-15T00:51:19;3.30;99.90
14006;DHT22;7078;51.542;7.314;2023-02-15T00:53:46;3.20;99.90
14006;DHT22;7078;51.542;7.314;2023-02-15T00:56:12;3.20;99.90
14006;DHT22;7078;51.542;7.314;2023-02-15T00:58:37;3.10;99.90
14006;DHT22;7078;51.542;7.314;2023-02-15T01:01:08;3.10;99.90
14006;DHT22;7078;51.542;7.314;2023-02-15T01:03:34;3.10;99.90
14006;DHT22;7078;51.542;7.314;2023-02-15T01:06:01;3.10;99.90
14006;DHT22;7078;51.542;7.314;2023-02-15T01:08:27;3.00;99.90
14006;DHT22;7078;51.542;7.314;2023-02-15T01:10:53;3.10;99.90
14006;DHT22;7078;51.542;7.314;2023-02-15T01:13:19;3.00;99.90
14006;DHT22;7078;51.542;7.314;2023-02-15T01:15:44;3.00;99.90
14006;DHT22;7078;51.542;7.314;2023-02-15T01:18:10;3.00;99.90
14006;DHT22;7078;51.542;7.314;2023-02-15T01:20:38;3.00;99.90
14006;DHT22;7078;51.542;7.314;2023-02-15T01:23:05;2.90;99.90
14006;DHT22;7078;51.542;7.314;2023-02-15T01:25:33;2.80;99.90
14006;DHT22;7078;51.542;7.314;2023-02-15T01:27:59;2.80;99.90
14006;DHT22;7078;51.542;7.314;2023-02-15T01:30:25;2.70;99.90
14006;DHT22;7078;51.542;7.314;2023-02-15T01:32:50;2.70;99.90
14006;DHT22;7078;51.542;7.314;2023-02-15T01:35:16;2.70;99.90
14006;DHT22;7078;51.542;7.314;2023-02-15T01:37:41;2.70;99.90
14006;DHT22;7078;51.542;7.314;2023-02-15T01:40:13;2.60;99.90
14006;DHT22;7078;51.542;7.314;2023-02-15T01:42:40;2.60;99.90
14006;DHT22;7078;51.542;7.314;2023-02-15T01:45:27;2.50;99.90
14006;DHT22;7078;51.542;7.314;2023-02-15T01:50:44;2.50;99.90
14006;DHT22;7078;51.542;7.314;2023-02-15T01:55:55;2.40;99.90
14006;DHT22;7078;51.542;7.314;2023-02-15T01:58:24;2.40;99.90
14006;DHT22;7078;51.542;7.314;2023-02-15T02:00:51;2.30;99.90
14006;DHT22;7078;51.542;7.314;2023-02-15T02:03:16;2.30;99.90
14006;DHT22;7078;51.542;7.314;2023-02-15T02:05:43;2.30;99.90
14006;DHT22;7078;51.542;7.314;2023-02-15T02:08:09;2.20;99.90
14006;DHT22;7078;51.542;7.314;2023-02-15T02:10:35;2.20;99.90
14006;DHT22;7078;51.542;7.314;2023-02-15T02:13:03;2.20;99.90
14006;DHT22;7078;51.542;7.314;2023-02-15T02:15:56;2.20;99.90
14006;DHT22;7078;51.542;7.314;2023-02-15T02:24:23;2.20;99.90
14006;DHT22;7078;51.542;7.314;2023-02-15T02:35:15;2.00;99.90
14006;DHT22;7078;51.542;7.314;2023-02-15T02:38:08;1.90;99.90
14006;DHT22;7078;51.542;7.314;2023-02-15T02:40:52;1.90;99.90
14006;DHT22;7078;51.542;7.314;2023-02-15T02:43:37;2.00;99.90
14006;DHT22;7078;51.542;7.314;2023-02-15T02:46:10;2.00;99.90
14006;DHT22;7078;51.542;7.314;2023-02-15T02:48:39;1.90;99.90
14006;DHT22;7078;51.542;7.314;2023-02-15T02:51:05;2.00;99.90
14006;DHT22;7078;51.542;7.314;2023-02-15T02:53:31;1.90;99.90
14006;DHT22;7078;51.542;7.314;2023-02-15T02:56:11;1.90;99.90
14006;DHT22;7078;51.542;7.314;2023-02-15T02:59:05;1.90;99.90
14006;DHT22;7078;51.542;7.314;2023-02-15T03:01:39;1.90;99.90
14006;DHT22;7078;51.542;7.314;2023-02-15T03:04:10;1.90;99.90
14006;DHT22;7078;51.542;7.314;2023-02-15T03:06:44;1.80;99.90
14006;DHT22;7078;51.542;7.314;2023-02-15T03:09:39;1.80;99.90
14006;DHT22;7078;51.542;7.314;2023-02-15T03:12:19;1.80;99.90
14006;DHT22;7078;51.542;7.314;2023-02-15T03:14:49;1.70;99.90
14006;DHT22;7078;51.542;7.314;2023-02-15T03:17:18;1.70;99.90
14006;DHT22;7078;51.542;7.314;2023-02-15T03:19:45;1.70;99.90
14006;DHT22;7078;51.542;7.314;2023-02-15T03:22:28;1.70;99.90
14006;DHT22;7078;51.542;7.314;2023-02-15T03:25:05;1.70;99.90
14006;DHT22;7078;51.542;7.314;2023-02-15T03:27:39;1.70;99.90
14006;DHT22;7078;51.542;7.314;2023-02-15T03:30:07;1.70;99.90
14006;DHT22;7078;51.542;7.314;2023-02-15T03:32:34;1.70;99.90
14006;DHT22;7078;51.542;7.314;2023-02-15T03:35:01;1.70;99.90
14006;DHT22;7078;51.542;7.314;2023-02-15T03:40:10;1.60;99.90
14006;DHT22;7078;51.542;7.314;2023-02-15T03:43:14;1.60;99.90
14006;DHT22;7078;51.542;7.314;2023-02-15T03:45:46;1.60;99.90
14006;DHT22;7078;51.542;7.314;2023-02-15T03:48:30;1.60;99.90
14006;DHT22;7078;51.542;7.314;2023-02-15T03:51:00;1.60;99.90
14006;DHT22;7078;51.542;7.314;2023-02-15T03:53:47;1.60;99.90
14006;DHT22;7078;51.542;7.314;2023-02-15T03:56:13;1.60;99.90
14006;DHT22;7078;51.542;7.314;2023-02-15T03:58:39;1.60;99.90
14006;DHT22;7078;51.542;7.314;2023-02-15T04:01:39;1.70;99.90
14006;DHT22;7078;51.542;7.314;2023-02-15T04:04:38;1.60;99.90
14006;DHT22;7078;51.542;7.314;2023-02-15T04:07:06;1.60;99.90
14006;DHT22;7078;51.542;7.314;2023-02-15T04:09:32;1.60;99.90
14006;DHT22;7078;51.542;7.314;2023-02-15T04:12:16;1.60;99.90
14006;DHT22;7078;51.542;7.314;2023-02-15T04:14:42;1.60;99.90
14006;DHT22;7078;51.542;7.314;2023-02-15T04:17:26;1.60;99.90
14006;DHT22;7078;51.542;7.314;2023-02-15T04:19:52;1.60;99.90
14006;DHT22;7078;51.542;7.314;2023-02-15T04:22:36;1.50;99.90
14006;DHT22;7078;51.542;7.314;2023-02-15T04:25:20;1.50;99.90
14006;DHT22;7078;51.542;7.314;2023-02-15T04:27:53;1.50;99.90
14006;DHT22;7078;51.542;7.314;2023-02-15T04:30:22;1.50;99.90
14006;DHT22;7078;51.542;7.314;2023-02-15T04:32:47;1.50;99.90
14006;DHT22;7078;51.542;7.314;2023-02-15T04:35:14;1.40;99.90
14006;DHT22;7078;51.542;7.314;2023-02-15T04:37:40;1.40;99.90
14006;DHT22;7078;51.542;7.314;2023-02-15T04:40:10;1.40;99.90
14006;DHT22;7078;51.542;7.314;2023-02-15T04:42:36;1.40;99.90
14006;DHT22;7078;51.542;7.314;2023-02-15T04:45:01;1.40;99.90
14006;DHT22;7078;51.542;7.314;2023-02-15T04:47:27;1.40;99.90
14006;DHT22;7078;51.542;7.314;2023-02-15T04:49:52;1.40;99.90
14006;DHT22;7078;51.542;7.314;2023-02-15T04:52:18;1.40;99.90
14006;DHT22;7078;51.542;7.314;2023-02-15T04:54:44;1.40;99.90
14006;DHT22;7078;51.542;7.314;2023-02-15T04:57:10;1.40;99.90
14006;DHT22;7078;51.542;7.314;2023-02-15T04:59:36;1.40;99.90
14006;DHT22;7078;51.542;7.314;2023-02-15T05:02:02;1.40;99.90
14006;DHT22;7078;51.542;7.314;2023-02-15T05:04:27;1.40;99.90
14006;DHT22;7078;51.542;7.314;2023-02-15T05:06:53;1.40;99.90
14006;DHT22;7078;51.542;7.314;2023-02-15T05:09:18;1.40;99.90
14006;DHT22;7078;51.542;7.314;2023-02-15T05:11:44;1.40;99.90
14006;DHT22;7078;51.542;7.314;2023-02-15T05:14:10;1.40;99.90
14006;DHT22;7078;51.542;7.314;2023-02-15T05:16:35;1.40;99.90
14006;DHT22;7078;51.542;7.314;2023-02-15T05:19:01;1.40;99.90
14006;DHT22;7078;51.542;7.314;2023-02-15T05:21:26;1.40;99.90
14006;DHT22;7078;51.542;7.314;2023-02-15T05:23:52;1.30;99.90
14006;DHT22;7078;51.542;7.314;2023-02-15T05:26:23;1.30;99.90
14006;DHT22;7078;51.542;7.314;2023-02-15T05:29:07;1.30;99.90
14006;DHT22;7078;51.542;7.314;2023-02-15T05:31:34;1.30;99.90
14006;DHT22;7078;51.542;7.314;2023-02-15T05:34:00;1.30;99.90
14006;DHT22;7078;51.542;7.314;2023-02-15T05:36:26;1.30;99.90
14006;DHT22;7078;51.542;7.314;2023-02-15T05:38:52;1.30;99.90
14006;DHT22;7078;51.542;7.314;2023-02-15T05:41:17;1.30;99.90
14006;DHT22;7078;51.542;7.314;2023-02-15T05:43:43;1.30;99.90
14006;DHT22;7078;51.542;7.314;2023-02-15T05:46:09;1.30;99.90
14006;DHT22;7078;51.542;7.314;2023-02-15T05:48:35;1.30;99.90
14006;DHT22;7078;51.542;7.314;2023-02-15T05:51:12;1.30;99.90
14006;DHT22;7078;51.542;7.314;2023-02-15T05:53:39;1.30;99.90
14006;DHT22;7078;51.542;7.314;2023-02-15T05:56:07;1.30;99.90
14006;DHT22;7078;51.542;7.314;2023-02-15T05:58:35;1.30;99.90
14006;DHT22;7078;51.542;7.314;2023-02-15T06:01:11;1.30;99.90
14006;DHT22;7078;51.542;7.314;2023-02-15T06:03:37;1.40;99.90
14006;DHT22;7078;51.542;7.314;2023-02-15T06:06:02;1.40;99.90
14006;DHT22;7078;51.542;7.314;2023-02-15T06:08:30;1.50;99.90
14006;DHT22;7078;51.542;7.314;2023-02-15T06:10:56;1.60;99.90
14006;DHT22;7078;51.542;7.314;2023-02-15T06:13:21;1.60;99.90
14006;DHT22;7078;51.542;7.314;2023-02-15T06:15:47;1.70;99.90
14006;DHT22;7078;51.542;7.314;2023-02-15T06:18:12;1.70;99.90
14006;DHT22;7078;51.542;7.314;2023-02-15T06:20:38;1.90;99.90
14006;DHT22;7078;51.542;7.314;2023-02-15T06:23:04;2.00;99.90
14006;DHT22;7078;51.542;7.314;2023-02-15T06:25:29;2.10;99.90
14006;DHT22;7078;51.542;7.314;2023-02-15T06:27:55;2.60;99.90
14006;DHT22;7078;51.542;7.314;2023-02-15T06:30:20;3.30;99.90
14006;DHT22;7078;51.542;7.314;2023-02-15T06:32:46;3.70;99.90
14006;DHT22;7078;51.542;7.314;2023-02-15T06:35:12;3.90;99.90
14006;DHT22;7078;51.542;7.314;2023-02-15T06:37:37;3.90;99.90
14006;DHT22;7078;51.542;7.314;2023-02-15T06:40:03;3.90;99.90
14006;DHT22;7078;51.542;7.314;2023-02-15T06:42:29;4.10;99.90
14006;DHT22;7078;51.542;7.314;2023-02-15T06:44:55;4.20;99.90
14006;DHT22;7078;51.542;7.314;2023-02-15T06:47:20;4.30;99.90
14006;DHT22;7078;51.542;7.314;2023-02-15T06:49:46;4.20;99.90
14006;DHT22;7078;51.542;7.314;2023-02-15T06:52:12;4.10;99.90
14006;DHT22;7078;51.542;7.314;2023-02-15T06:54:37;4.10;99.90
14006;DHT22;7078;51.542;7.314;2023-02-15T06:57:03;4.20;99.90
14006;DHT22;7078;51.542;7.314;2023-02-15T06:59:28;4.40;99.90
14006;DHT22;7078;51.542;7.314;2023-02-15T07:01:54;4.30;99.90
14006;DHT22;7078;51.542;7.314;2023-02-15T07:04:20;4.10;99.90
14006;DHT22;7078;51.542;7.314;2023-02-15T07:06:45;3.80;99.90
14006;DHT22;7078;51.542;7.314;2023-02-15T07:09:11;3.70;99.90
14006;DHT22;7078;51.542;7.314;2023-02-15T07:11:38;3.60;99.90
14006;DHT22;7078;51.542;7.314;2023-02-15T07:14:22;3.50;99.90
14006;DHT22;7078;51.542;7.314;2023-02-15T07:16:48;3.40;99.90
14006;DHT22;7078;51.542;7.314;2023-02-15T07:19:14;3.30;99.90
14006;DHT22;7078;51.542;7.314;2023-02-15T07:21:39;3.30;99.90
14006;DHT22;7078;51.542;7.314;2023-02-15T07:24:05;3.30;99.90
14006;DHT22;7078;51.542;7.314;2023-02-15T07:26:33;3.20;99.90
14006;DHT22;7078;51.542;7.314;2023-02-15T07:28:59;3.20;99.90
14006;DHT22;7078;51.542;7.314;2023-02-15T07:31:25;3.20;99.90
14006;DHT22;7078;51.542;7.314;2023-02-15T07:33:50;3.20;99.90
14006;DHT22;7078;51.542;7.314;2023-02-15T07:36:16;3.20;99.90
14006;DHT22;7078;51.542;7.314;2023-02-15T07:38:42;3.20;99.90
14006;DHT22;7078;51.542;7.314;2023-02-15T07:41:13;3.20;99.90
14006;DHT22;7078;51.542;7.314;2023-02-15T07:43:41;3.20;99.90
14006;DHT22;7078;51.542;7.314;2023-02-15T07:46:09;3.20;99.90
14006;DHT22;7078;51.542;7.314;2023-02-15T07:48:36;3.30;99.90
14006;DHT22;7078;51.542;7.314;2023-02-15T07:51:03;3.30;99.90
14006;DHT22;7078;51.542;7.314;2023-02-15T07:53:29;3.40;99.90
14006;DHT22;7078;51.542;7.314;2023-02-15T07:55:58;3.40;99.90
14006;DHT22;7078;51.542;7.314;2023-02-15T07:58:24;3.50;99.90
14006;DHT22;7078;51.542;7.314;2023-02-15T08:01:10;3.60;99.90
14006;DHT22;7078;51.542;7.314;2023-02-15T08:03:35;3.60;99.90
14006;DHT22;7078;51.542;7.314;2023-02-15T08:06:01;3.70;99.90
14006;DHT22;7078;51.542;7.314;2023-02-15T08:08:27;3.80;99.90
14006;DHT22;7078;51.542;7.314;2023-02-15T08:14:14;4.00;99.90
14006;DHT22;7078;51.542;7.314;2023-02-15T08:16:45;4.20;99.90
14006;DHT22;7078;51.542;7.314;2023-02-15T08:19:17;4.40;99.90
14006;DHT22;7078;51.542;7.314;2023-02-15T08:21:46;4.50;99.90
14006;DHT22;7078;51.542;7.314;2023-02-15T08:24:16;4.60;99.90
14006;DHT22;7078;51.542;7.314;2023-02-15T08:26:43;4.70;99.90
14006;DHT22;7078;51.542;7.314;2023-02-15T08:29:11;4.80;99.90
14006;DHT22;7078;51.542;7.314;2023-02-15T08:31:37;4.90;99.90
14006;DHT22;7078;51.542;7.314;2023-02-15T08:34:03;5.10;99.90
14006;DHT22;7078;51.542;7.314;2023-02-15T08:36:29;5.20;99.90
14006;DHT22;7078;51.542;7.314;2023-02-15T08:39:01;5.40;99.90
14006;DHT22;7078;51.542;7.314;2023-02-15T08:41:32;5.50;99.90
14006;DHT22;7078;51.542;7.314;2023-02-15T08:44:01;5.70;99.90
14006;DHT22;7078;51.542;7.314;2023-02-15T08:46:30;5.80;99.90
14006;DHT22;7078;51.542;7.314;2023-02-15T08:48:56;5.90;99.90
14006;DHT22;7078;51.542;7.314;2023-02-15T08:51:24;6.00;99.90
14006;DHT22;7078;51.542;7.314;2023-02-15T08:53:53;6.20;99.90
14006;DHT22;7078;51.542;7.314;2023-02-15T08:56:21;6.40;99.90
14006;DHT22;7078;51.542;7.314;2023-02-15T08:58:47;6.50;99.90
14006;DHT22;7078;51.542;7.314;2023-02-15T09:01:18;6.60;99.90
14006;DHT22;7078;51.542;7.314;2023-02-15T09:03:46;6.70;99.90
14006;DHT22;7078;51.542;7.314;2023-02-15T09:06:12;6.80;99.90
14006;DHT22;7078;51.542;7.314;2023-02-15T09:08:38;6.90;99.90
14006;DHT22;7078;51.542;7.314;2023-02-15T09:11:05;7.00;99.90
14006;DHT22;7078;51.542;7.314;2023-02-15T09:13:31;7.20;99.90
14006;DHT22;7078;51.542;7.314;2023-02-15T09:16:05;7.30;99.90
14006;DHT22;7078;51.542;7.314;2023-02-15T09:18:33;7.40;99.90
14006;DHT22;7078;51.542;7.314;2023-02-15T09:21:12;7.50;99.90
14006;DHT22;7078;51.542;7.314;2023-02-15T09:23:45;7.60;99.90
14006;DHT22;7078;51.542;7.314;2023-02-15T09:26:16;7.70;99.90
14006;DHT22;7078;51.542;7.314;2023-02-15T09:28:42;7.80;99.90
14006;DHT22;7078;51.542;7.314;2023-02-15T09:31:19;8.00;99.90
14006;DHT22;7078;51.542;7.314;2023-02-15T09:33:45;8.10;99.90
14006;DHT22;7078;51.542;7.314;2023-02-15T09:36:17;8.10;99.90
14006;DHT22;7078;51.542;7.314;2023-02-15T09:38:47;8.30;99.90
14006;DHT22;7078;51.542;7.314;2023-02-15T09:45:00;8.50;99.90
14006;DHT22;7078;51.542;7.314;2023-02-15T09:50:10;8.70;99.90
14006;DHT22;7078;51.542;7.314;2023-02-15T09:58:49;9.00;99.90
14006;DHT22;7078;51.542;7.314;2023-02-15T10:09:55;9.40;99.10
14006;DHT22;7078;51.542;7.314;2023-02-15T10:18:07;9.90;97.20
14006;DHT22;7078;51.542;7.314;2023-02-15T10:20:46;9.90;97.30
14006;DHT22;7078;51.542;7.314;2023-02-15T10:23:45;10.10;96.00
14006;DHT22;7078;51.542;7.314;2023-02-15T10:26:28;10.20;94.30
14006;DHT22;7078;51.542;7.314;2023-02-15T10:29:35;10.40;93.40
14006;DHT22;7078;51.542;7.314;2023-02-15T10:34:47;10.50;92.60
14006;DHT22;7078;51.542;7.314;2023-02-15T10:49:01;11.10;93.90
14006;DHT22;7078;51.542;7.314;2023-02-15T10:59:57;11.60;92.20
14006;DHT22;7078;51.542;7.314;2023-02-15T11:08:00;11.80;91.40
14006;DHT22;7078;51.542;7.314;2023-02-15T11:11:01;11.80;91.20
14006;DHT22;7078;51.542;7.314;2023-02-15T11:13:31;11.90;91.10
14006;DHT22;7078;51.542;7.314;2023-02-15T11:16:13;12.00;91.00
14006;DHT22;7078;51.542;7.314;2023-02-15T11:18:45;12.10;91.20
14006;DHT22;7078;51.542;7.314;2023-02-15T11:21:20;12.10;91.10
14006;DHT22;7078;51.542;7.314;2023-02-15T11:23:46;12.20;90.80
14006;DHT22;7078;51.542;7.314;2023-02-15T11:26:36;12.30;90.20
14006;DHT22;7078;51.542;7.314;2023-02-15T11:31:54;12.40;89.10
14006;DHT22;7078;51.542;7.314;2023-02-15T11:34:28;12.40;89.60
14006;DHT22;7078;51.542;7.314;2023-02-15T11:36:59;12.50;80.50
14006;DHT22;7078;51.542;7.314;2023-02-15T11:39:27;12.60;80.10
14006;DHT22;7078;51.542;7.314;2023-02-15T11:41:59;12.70;75.80
14006;DHT22;7078;51.542;7.314;2023-02-15T11:44:30;12.90;73.80
14006;DHT22;7078;51.542;7.314;2023-02-15T11:46:58;13.00;74.00
14006;DHT22;7078;51.542;7.314;2023-02-15T11:49:33;13.10;73.20
14006;DHT22;7078;51.542;7.314;2023-02-15T11:52:06;13.20;72.10
14006;DHT22;7078;51.542;7.314;2023-02-15T11:54:34;13.30;72.30
14006;DHT22;7078;51.542;7.314;2023-02-15T11:57:33;13.30;72.30
14006;DHT22;7078;51.542;7.314;2023-02-15T12:00:10;13.40;71.20
14006;DHT22;7078;51.542;7.314;2023-02-15T12:02:38;13.50;68.00
14006;DHT22;7078;51.542;7.314;2023-02-15T12:05:11;13.50;66.80
14006;DHT22;7078;51.542;7.314;2023-02-15T12:08:00;13.60;67.70
14006;DHT22;7078;51.542;7.314;2023-02-15T12:10:33;13.70;67.50
14006;DHT22;7078;51.542;7.314;2023-02-15T12:13:15;13.70;67.00
14006;DHT22;7078;51.542;7.314;2023-02-15T12:15:45;13.80;66.30
14006;DHT22;7078;51.542;7.314;2023-02-15T12:18:40;13.80;67.00
14006;DHT22;7078;51.542;7.314;2023-02-15T12:21:15;13.90;66.30
14006;DHT22;7078;51.542;7.314;2023-02-15T12:23:51;13.90;64.30
14006;DHT22;7078;51.542;7.314;2023-02-15T12:26:29;13.90;63.30
14006;DHT22;7078;51.542;7.314;2023-02-15T12:29:16;13.90;62.40
14006;DHT22;7078;51.542;7.314;2023-02-15T12:31:45;14.00;62.30
14006;DHT22;7078;51.542;7.314;2023-02-15T12:34:28;14.10;62.30
14006;DHT22;7078;51.542;7.314;2023-02-15T12:36:56;14.20;61.10
14006;DHT22;7078;51.542;7.314;2023-02-15T12:39:32;14.20;61.20
14006;DHT22;7078;51.542;7.314;2023-02-15T12:42:08;14.30;60.00
14006;DHT22;7078;51.542;7.314;2023-02-15T12:44:59;14.30;59.40
14006;DHT22;7078;51.542;7.314;2023-02-15T12:47:26;14.30;60.70
14006;DHT22;7078;51.542;7.314;2023-02-15T12:52:34;14.20;58.00
14006;DHT22;7078;51.542;7.314;2023-02-15T12:55:22;14.20;58.40
14006;DHT22;7078;51.542;7.314;2023-02-15T12:57:49;14.20;59.20
14006;DHT22;7078;51.542;7.314;2023-02-15T13:00:29;14.30;58.60
14006;DHT22;7078;51.542;7.314;2023-02-15T13:02:58;14.40;58.20
14006;DHT22;7078;51.542;7.314;2023-02-15T13:05:36;14.40;58.00
14006;DHT22;7078;51.542;7.314;2023-02-15T13:08:19;14.40;56.90
14006;DHT22;7078;51.542;7.314;2023-02-15T13:13:24;14.50;56.70
14006;DHT22;7078;51.542;7.314;2023-02-15T13:15:51;14.50;57.50
14006;DHT22;7078;51.542;7.314;2023-02-15T13:18:31;14.50;58.00
14006;DHT22;7078;51.542;7.314;2023-02-15T13:21:16;14.60;57.30
14006;DHT22;7078;51.542;7.314;2023-02-15T13:24:01;14.60;57.40
14006;DHT22;7078;51.542;7.314;2023-02-15T13:26:31;14.70;57.50
14006;DHT22;7078;51.542;7.314;2023-02-15T13:29:03;14.70;57.40
14006;DHT22;7078;51.542;7.314;2023-02-15T13:31:33;14.70;57.10
14006;DHT22;7078;51.542;7.314;2023-02-15T13:39:45;14.60;57.40
14006;DHT22;7078;51.542;7.314;2023-02-15T13:53:12;14.80;57.60
14006;DHT22;7078;51.542;7.314;2023-02-15T13:55:52;14.80;57.10
14006;DHT22;7078;51.542;7.314;2023-02-15T14:01:36;14.70;55.40
14006;DHT22;7078;51.542;7.314;2023-02-15T14:07:33;14.70;55.90
14006;DHT22;7078;51.542;7.314;2023-02-15T14:10:26;14.70;56.70
14006;DHT22;7078;51.542;7.314;2023-02-15T14:16:05;14.70;56.80
14006;DHT22;7078;51.542;7.314;2023-02-15T14:18:44;14.70;56.50
14006;DHT22;7078;51.542;7.314;2023-02-15T14:21:29;14.80;56.50
14006;DHT22;7078;51.542;7.314;2023-02-15T14:29:23;14.90;55.90
14006;DHT22;7078;51.542;7.314;2023-02-15T14:32:05;15.00;55.90
14006;DHT22;7078;51.542;7.314;2023-02-15T14:34:49;15.00;54.80
14006;DHT22;7078;51.542;7.314;2023-02-15T14:37:21;15.00;54.50
14006;DHT22;7078;51.542;7.314;2023-02-15T14:42:56;15.00;54.90
14006;DHT22;7078;51.542;7.314;2023-02-15T14:45:39;15.00;55.10
14006;DHT22;7078;51.542;7.314;2023-02-15T14:48:30;15.00;55.70
14006;DHT22;7078;51.542;7.314;2023-02-15T14:50:56;14.90;55.20
14006;DHT22;7078;51.542;7.314;2023-02-15T14:53:33;14.90;54.70
14006;DHT22;7078;51.542;7.314;2023-02-15T14:58:36;14.80;55.30
14006;DHT22;7078;51.542;7.314;2023-02-15T15:01:10;14.70;55.40
14006;DHT22;7078;51.542;7.314;2023-02-15T15:03:36;14.60;55.60
14006;DHT22;7078;51.542;7.314;2023-02-15T15:06:26;14.60;55.90
14006;DHT22;7078;51.542;7.314;2023-02-15T15:08:55;14.50;55.50
14006;DHT22;7078;51.542;7.314;2023-02-15T15:13:58;14.50;56.20
14006;DHT22;7078;51.542;7.314;2023-02-15T15:19:03;14.40;56.20
14006;DHT22;7078;51.542;7.314;2023-02-15T15:38:39;14.00;57.30
14006;DHT22;7078;51.542;7.314;2023-02-15T15:49:47;13.70;58.10
14006;DHT22;7078;51.542;7.314;2023-02-15T15:52:18;13.70;58.40
14006;DHT22;7078;51.542;7.314;2023-02-15T15:54:46;13.60;58.80
14006;DHT22;7078;51.542;7.314;2023-02-15T15:57:39;13.50;59.50
14006;DHT22;7078;51.542;7.314;2023-02-15T16:00:30;13.50;60.40
14006;DHT22;7078;51.542;7.314;2023-02-15T16:02:57;13.40;61.30
14006;DHT22;7078;51.542;7.314;2023-02-15T16:05:23;13.40;62.20
14006;DHT22;7078;51.542;7.314;2023-02-15T16:07:49;13.30;61.60
14006;DHT22;7078;51.542;7.314;2023-02-15T16:10:23;13.20;62.00
14006;DHT22;7078;51.542;7.314;2023-02-15T16:12:50;13.10;62.90
14006;DHT22;7078;51.542;7.314;2023-02-15T16:15:25;13.00;64.10
14006;DHT22;7078;51.542;7.314;2023-02-15T16:17:55;12.80;65.50
14006;DHT22;7078;51.542;7.314;2023-02-15T16:20:24;12.70;66.30
14006;DHT22;7078;51.542;7.314;2023-02-15T16:23:09;12.50;66.90
14006;DHT22;7078;51.542;7.314;2023-02-15T16:28:13;12.30;68.00
14006;DHT22;7078;51.542;7.314;2023-02-15T16:30:40;12.20;68.30
14006;DHT22;7078;51.542;7.314;2023-02-15T16:33:11;12.10;68.90
14006;DHT22;7078;51.542;7.314;2023-02-15T16:35:40;12.00;69.80
14006;DHT22;7078;51.542;7.314;2023-02-15T16:38:09;11.80;71.00
14006;DHT22;7078;51.542;7.314;2023-02-15T16:40:43;11.70;72.50
14006;DHT22;7078;51.542;7.314;2023-02-15T16:43:22;11.50;74.40
14006;DHT22;7078;51.542;7.314;2023-02-15T16:45:50;11.30;77.90
14006;DHT22;7078;51.542;7.314;2023-02-15T16:48:21;11.20;78.60
14006;DHT22;7078;51.542;7.314;2023-02-15T16:50:51;11.10;80.00
14006;DHT22;7078;51.542;7.314;2023-02-15T16:53:27;11.00;81.50
14006;DHT22;7078;51.542;7.314;2023-02-15T16:55:59;10.80;81.80
14006;DHT22;7078;51.542;7.314;2023-02-15T16:58:29;10.70;81.90
14006;DHT22;7078;51.542;7.314;2023-02-15T17:00:57;10.60;82.70
14006;DHT22;7078;51.542;7.314;2023-02-15T17:03:25;10.50;84.00
14006;DHT22;7078;51.542;7.314;2023-02-15T17:05:53;10.40;86.40
14006;DHT22;7078;51.542;7.314;2023-02-15T17:08:34;10.30;86.20
14006;DHT22;7078;51.542;7.314;2023-02-15T17:13:34;10.10;87.00
14006;DHT22;7078;51.542;7.314;2023-02-15T17:18:30;10.10;88.60
14006;DHT22;7078;51.542;7.314;2023-02-15T17:20:59;10.00;88.80
14006;DHT22;7078;51.542;7.314;2023-02-15T17:23:30;10.00;88.60
14006;DHT22;7078;51.542;7.314;2023-02-15T17:25:57;10.00;88.90
14006;DHT22;7078;51.542;7.314;2023-02-15T17:28:26;10.00;89.20
14006;DHT22;7078;51.542;7.314;2023-02-15T17:30:53;10.00;90.00
14006;DHT22;7078;51.542;7.314;2023-02-15T17:33:43;9.90;90.20
14006;DHT22;7078;51.542;7.314;2023-02-15T17:38:42;9.90;91.40
14006;DHT22;7078;51.542;7.314;2023-02-15T17:41:34;9.90;91.50
14006;DHT22;7078;51.542;7.314;2023-02-15T17:44:01;9.90;90.80
14006;DHT22;7078;51.542;7.314;2023-02-15T17:46:32;9.90;90.70
14006;DHT22;7078;51.542;7.314;2023-02-15T17:48:59;10.00;90.60
14006;DHT22;7078;51.542;7.314;2023-02-15T17:51:25;10.00;90.60
14006;DHT22;7078;51.542;7.314;2023-02-15T17:53:51;10.00;90.60
14006;DHT22;7078;51.542;7.314;2023-02-15T17:56:36;10.00;90.90
14006;DHT22;7078;51.542;7.314;2023-02-15T17:59:03;9.90;91.00
14006;DHT22;7078;51.542;7.314;2023-02-15T18:01:36;9.90;91.30
14006;DHT22;7078;51.542;7.314;2023-02-15T18:04:22;9.90;91.30
14006;DHT22;7078;51.542;7.314;2023-02-15T18:07:08;9.80;91.70
14006;DHT22;7078;51.542;7.314;2023-02-15T18:09:52;9.80;91.70
14006;DHT22;7078;51.542;7.314;2023-02-15T18:12:36;9.80;92.00
14006;DHT22;7078;51.542;7.314;2023-02-15T18:15:05;9.80;92.30
14006;DHT22;7078;51.542;7.314;2023-02-15T18:17:44;9.70;92.60
14006;DHT22;7078;51.542;7.314;2023-02-15T18:20:33;9.70;92.60
14006;DHT22;7078;51.542;7.314;2023-02-15T18:23:01;9.60;92.50
14006;DHT22;7078;51.542;7.314;2023-02-15T18:25:27;9.70;92.50
14006;DHT22;7078;51.542;7.314;2023-02-15T18:27:52;9.60;92.70
14006;DHT22;7078;51.542;7.314;2023-02-15T18:30:20;9.60;93.10
14006;DHT22;7078;51.542;7.314;2023-02-15T18:32:48;9.40;93.30
14006;DHT22;7078;51.542;7.314;2023-02-15T18:35:18;9.50;93.60
14006;DHT22;7078;51.542;7.314;2023-02-15T18:37:45;9.50;93.70
14006;DHT22;7078;51.542;7.314;2023-02-15T18:40:20;9.50;93.90
14006;DHT22;7078;51.542;7.314;2023-02-15T18:42:46;9.40;94.20
14006;DHT22;7078;51.542;7.314;2023-02-15T18:45:16;9.40;94.40
14006;DHT22;7078;51.542;7.314;2023-02-15T18:47:41;9.40;94.50
14006;DHT22;7078;51.542;7.314;2023-02-15T18:50:07;9.40;94.70
14006;DHT22;7078;51.542;7.314;2023-02-15T18:52:36;9.30;95.30
14006;DHT22;7078;51.542;7.314;2023-02-15T18:55:04;9.10;95.60
14006;DHT22;7078;51.542;7.314;2023-02-15T18:57:32;9.20;96.00
14006;DHT22;7078;51.542;7.314;2023-02-15T18:59:58;9.20;96.30
14006;DHT22;7078;51.542;7.314;2023-02-15T19:02:23;9.20;96.90
14006;DHT22;7078;51.542;7.314;2023-02-15T19:04:49;9.10;97.10
14006;DHT22;7078;51.542;7.314;2023-02-15T19:07:24;9.10;97.40
14006;DHT22;7078;51.542;7.314;2023-02-15T19:09:56;9.10;97.80